sensor_id;sensor_type;location;lat;lon;timestamp;temperature;humidity
70166;SHT30;57541;47.408;18.822;2022-12-07T06:20:18;2.66;98.51
70166;SHT30;57541;47.408;18.822;2022-12-07T06:20:50;2.71;98.56
70166;SHT30;57541;47.408;18.822;2022-12-07T06:21:22;2.72;98.67
70166;SHT30;57541;47.408;18.822;2022-12-07T06:21:54;2.68;98.37
70166;SHT30;57541;47.408;18.822;2022-12-07T06:22:26;2.62;98.48
70166;SHT30;57541;47.408;18.822;2022-12-07T06:22:57;2.63;98.68
70166;SHT30;57541;47.408;18.822;2022-12-07T06:23:29;2.75;99.03
70166;SHT30;57541;47.408;18.822;2022-12-07T06:24:01;2.69;98.70
70166;SHT30;57541;47.408;18.822;2022-12-07T06:24:33;2.51;98.89
70166;SHT30;57541;47.408;18.822;2022-12-07T06:25:05;2.40;99.06
70166;SHT30;57541;47.408;18.822;2022-12-07T06:25:39;2.34;99.38
70166;SHT30;57541;47.408;18.822;2022-12-07T06:26:10;2.35;99.50
70166;SHT30;57541;47.408;18.822;2022-12-07T06:26:42;2.34;99.58
70166;SHT30;57541;47.408;18.822;2022-12-07T06:27:14;2.30;99.69
70166;SHT30;57541;47.408;18.822;2022-12-07T06:27:45;2.28;99.75
70166;SHT30;57541;47.408;18.822;2022-12-07T06:28:17;2.31;99.87
70166;SHT30;57541;47.408;18.822;2022-12-07T06:28:49;2.35;99.88
70166;SHT30;57541;47.408;18.822;2022-12-07T06:29:21;2.38;99.68
70166;SHT30;57541;47.408;18.822;2022-12-07T06:29:53;2.44;99.61
70166;SHT30;57541;47.408;18.822;2022-12-07T06:30:24;2.34;99.70
70166;SHT30;57541;47.408;18.822;2022-12-07T06:30:57;2.13;99.96
70166;SHT30;57541;47.408;18.822;2022-12-07T06:31:30;2.04;99.99
70166;SHT30;57541;47.408;18.822;2022-12-07T06:32:02;2.01;99.99
70166;SHT30;57541;47.408;18.822;2022-12-07T06:32:36;2.15;99.99
70166;SHT30;57541;47.408;18.822;2022-12-07T06:33:08;2.23;99.99
70166;SHT30;57541;47.408;18.822;2022-12-07T06:33:40;2.30;99.95
70166;SHT30;57541;47.408;18.822;2022-12-07T06:34:14;2.23;99.82
70166;SHT30;57541;47.408;18.822;2022-12-07T06:34:46;2.23;99.78
70166;SHT30;57541;47.408;18.822;2022-12-07T06:35:18;2.07;99.79
70166;SHT30;57541;47.408;18.822;2022-12-07T06:35:50;2.06;99.99
70166;SHT30;57541;47.408;18.822;2022-12-07T06:36:22;2.01;99.99
70166;SHT30;57541;47.408;18.822;2022-12-07T06:36:57;2.10;99.99
70166;SHT30;57541;47.408;18.822;2022-12-07T06:37:29;2.20;99.99
70166;SHT30;57541;47.408;18.822;2022-12-07T06:38:01;2.13;99.96
70166;SHT30;57541;47.408;18.822;2022-12-07T06:38:33;2.14;99.84
70166;SHT30;57541;47.408;18.822;2022-12-07T06:39:05;2.13;99.99
70166;SHT30;57541;47.408;18.822;2022-12-07T06:39:37;2.13;99.99
70166;SHT30;57541;47.408;18.822;2022-12-07T06:40:09;1.99;99.99
70166;SHT30;57541;47.408;18.822;2022-12-07T06:40:41;1.97;99.99
70166;SHT30;57541;47.408;18.822;2022-12-07T06:41:13;2.03;99.99
70166;SHT30;57541;47.408;18.822;2022-12-07T06:41:45;2.09;99.99
70166;SHT30;57541;47.408;18.822;2022-12-07T06:42:16;2.24;99.99
70166;SHT30;57541;47.408;18.822;2022-12-07T06:42:48;2.21;99.99
70166;SHT30;57541;47.408;18.822;2022-12-07T06:43:19;2.27;99.83
70166;SHT30;57541;47.408;18.822;2022-12-07T06:43:51;2.34;99.70
70166;SHT30;57541;47.408;18.822;2022-12-07T06:44:26;2.44;99.17
70166;SHT30;57541;47.408;18.822;2022-12-07T06:44:58;2.38;99.27
70166;SHT30;57541;47.408;18.822;2022-12-07T06:45:30;2.40;99.15
70166;SHT30;57541;47.408;18.822;2022-12-07T06:46:01;2.40;99.09
70166;SHT30;57541;47.408;18.822;2022-12-07T06:46:33;2.30;99.17
70166;SHT30;57541;47.408;18.822;2022-12-07T06:47:06;2.34;99.18
70166;SHT30;57541;47.408;18.822;2022-12-07T06:47:59;2.21;99.50
70166;SHT30;57541;47.408;18.822;2022-12-07T06:48:30;2.25;99.61
70166;SHT30;57541;47.408;18.822;2022-12-07T06:49:04;2.25;99.74
70166;SHT30;57541;47.408;18.822;2022-12-07T06:49:36;2.25;99.46
70166;SHT30;57541;47.408;18.822;2022-12-07T06:50:07;2.28;99.70
70166;SHT30;57541;47.408;18.822;2022-12-07T06:50:39;2.34;99.61
70166;SHT30;57541;47.408;18.822;2022-12-07T06:51:11;2.34;99.49
70166;SHT30;57541;47.408;18.822;2022-12-07T06:51:43;2.31;99.38
70166;SHT30;57541;47.408;18.822;2022-12-07T06:52:15;2.34;99.58
70166;SHT30;57541;47.408;18.822;2022-12-07T06:52:46;2.44;99.58
70166;SHT30;57541;47.408;18.822;2022-12-07T06:53:18;2.46;99.40
70166;SHT30;57541;47.408;18.822;2022-12-07T06:53:50;2.45;99.10
70166;SHT30;57541;47.408;18.822;2022-12-07T06:54:21;2.46;99.13
70166;SHT30;57541;47.408;18.822;2022-12-07T06:54:53;2.49;99.13
70166;SHT30;57541;47.408;18.822;2022-12-07T06:55:24;2.45;98.98
70166;SHT30;57541;47.408;18.822;2022-12-07T06:55:56;2.49;99.22
70166;SHT30;57541;47.408;18.822;2022-12-07T06:56:28;2.49;99.31
70166;SHT30;57541;47.408;18.822;2022-12-07T06:57:00;2.51;99.36
70166;SHT30;57541;47.408;18.822;2022-12-07T06:57:31;2.46;99.06
70166;SHT30;57541;47.408;18.822;2022-12-07T06:58:03;2.48;99.00
70166;SHT30;57541;47.408;18.822;2022-12-07T06:58:35;2.49;99.20
70166;SHT30;57541;47.408;18.822;2022-12-07T06:59:07;2.52;99.42
70166;SHT30;57541;47.408;18.822;2022-12-07T06:59:39;2.55;99.35
70166;SHT30;57541;47.408;18.822;2022-12-07T07:00:11;2.61;99.32
70166;SHT30;57541;47.408;18.822;2022-12-07T07:00:51;2.69;99.19
70166;SHT30;57541;47.408;18.822;2022-12-07T07:01:23;2.66;98.58
70166;SHT30;57541;47.408;18.822;2022-12-07T07:01:55;2.73;98.63
70166;SHT30;57541;47.408;18.822;2022-12-07T07:02:27;2.78;98.45
70166;SHT30;57541;47.408;18.822;2022-12-07T07:02:58;2.75;98.29
70166;SHT30;57541;47.408;18.822;2022-12-07T07:03:30;2.73;98.35
70166;SHT30;57541;47.408;18.822;2022-12-07T07:04:02;2.73;98.33
70166;SHT30;57541;47.408;18.822;2022-12-07T07:04:33;2.68;98.42
70166;SHT30;57541;47.408;18.822;2022-12-07T07:05:05;2.61;98.48
70166;SHT30;57541;47.408;18.822;2022-12-07T07:05:37;2.66;98.88
70166;SHT30;57541;47.408;18.822;2022-12-07T07:06:12;2.66;98.51
70166;SHT30;57541;47.408;18.822;2022-12-07T07:06:44;2.62;98.50
70166;SHT30;57541;47.408;18.822;2022-12-07T07:07:16;2.65;98.46
70166;SHT30;57541;47.408;18.822;2022-12-07T07:07:48;2.66;98.46
70166;SHT30;57541;47.408;18.822;2022-12-07T07:08:42;2.58;98.52
70166;SHT30;57541;47.408;18.822;2022-12-07T07:09:13;2.66;98.77
70166;SHT30;57541;47.408;18.822;2022-12-07T07:09:45;2.66;98.71
70166;SHT30;57541;47.408;18.822;2022-12-07T07:10:17;2.62;98.55
70166;SHT30;57541;47.408;18.822;2022-12-07T07:10:49;2.62;98.73
70166;SHT30;57541;47.408;18.822;2022-12-07T07:11:21;2.63;98.62
70166;SHT30;57541;47.408;18.822;2022-12-07T07:11:52;2.63;98.69
70166;SHT30;57541;47.408;18.822;2022-12-07T07:12:24;2.63;98.70
70166;SHT30;57541;47.408;18.822;2022-12-07T07:12:56;2.53;98.97
70166;SHT30;57541;47.408;18.822;2022-12-07T07:13:28;2.58;99.16
70166;SHT30;57541;47.408;18.822;2022-12-07T07:14:00;2.62;98.84
70166;SHT30;57541;47.408;18.822;2022-12-07T07:14:33;2.56;98.84
70166;SHT30;57541;47.408;18.822;2022-12-07T07:15:05;2.51;99.05
70166;SHT30;57541;47.408;18.822;2022-12-07T07:15:38;2.56;99.30
70166;SHT30;57541;47.408;18.822;2022-12-07T07:16:09;2.61;99.30
70166;SHT30;57541;47.408;18.822;2022-12-07T07:16:41;2.61;99.21
70166;SHT30;57541;47.408;18.822;2022-12-07T07:17:13;2.62;99.28
70166;SHT30;57541;47.408;18.822;2022-12-07T07:17:45;2.69;99.44
70166;SHT30;57541;47.408;18.822;2022-12-07T07:18:16;2.66;99.07
70166;SHT30;57541;47.408;18.822;2022-12-07T07:18:48;2.69;99.10
70166;SHT30;57541;47.408;18.822;2022-12-07T07:19:20;2.79;98.96
70166;SHT30;57541;47.408;18.822;2022-12-07T07:19:51;2.81;98.71
70166;SHT30;57541;47.408;18.822;2022-12-07T07:20:23;2.81;98.85
70166;SHT30;57541;47.408;18.822;2022-12-07T07:20:55;2.89;98.84
70166;SHT30;57541;47.408;18.822;2022-12-07T07:21:27;2.86;98.40
70166;SHT30;57541;47.408;18.822;2022-12-07T07:21:58;2.85;98.26
70166;SHT30;57541;47.408;18.822;2022-12-07T07:22:30;2.88;98.31
70166;SHT30;57541;47.408;18.822;2022-12-07T07:23:02;2.86;98.20
70166;SHT30;57541;47.408;18.822;2022-12-07T07:23:34;2.81;98.27
70166;SHT30;57541;47.408;18.822;2022-12-07T07:24:05;2.78;98.64
70166;SHT30;57541;47.408;18.822;2022-12-07T07:24:37;2.83;98.70
70166;SHT30;57541;47.408;18.822;2022-12-07T07:25:09;2.82;98.36
70166;SHT30;57541;47.408;18.822;2022-12-07T07:25:40;2.76;98.14
70166;SHT30;57541;47.408;18.822;2022-12-07T07:26:12;2.81;98.28
70166;SHT30;57541;47.408;18.822;2022-12-07T07:26:49;2.82;98.50
70166;SHT30;57541;47.408;18.822;2022-12-07T07:27:20;2.86;98.28
70166;SHT30;57541;47.408;18.822;2022-12-07T07:27:52;2.83;98.10
70166;SHT30;57541;47.408;18.822;2022-12-07T07:28:23;2.82;98.06
70166;SHT30;57541;47.408;18.822;2022-12-07T07:28:55;2.78;98.40
70166;SHT30;57541;47.408;18.822;2022-12-07T07:29:26;2.78;98.75
70166;SHT30;57541;47.408;18.822;2022-12-07T07:29:58;2.79;98.83
70166;SHT30;57541;47.408;18.822;2022-12-07T07:30:30;2.82;98.95
70166;SHT30;57541;47.408;18.822;2022-12-07T07:31:02;2.88;98.87
70166;SHT30;57541;47.408;18.822;2022-12-07T07:31:34;2.78;98.64
70166;SHT30;57541;47.408;18.822;2022-12-07T07:32:06;2.79;98.54
70166;SHT30;57541;47.408;18.822;2022-12-07T07:32:39;2.85;98.84
70166;SHT30;57541;47.408;18.822;2022-12-07T07:33:11;2.88;98.76
70166;SHT30;57541;47.408;18.822;2022-12-07T07:33:43;2.88;98.44
70166;SHT30;57541;47.408;18.822;2022-12-07T07:34:14;2.90;98.40
70166;SHT30;57541;47.408;18.822;2022-12-07T07:34:46;2.93;98.29
70166;SHT30;57541;47.408;18.822;2022-12-07T07:35:17;2.92;98.01
70166;SHT30;57541;47.408;18.822;2022-12-07T07:35:49;2.99;98.00
70166;SHT30;57541;47.408;18.822;2022-12-07T07:36:20;2.92;97.90
70166;SHT30;57541;47.408;18.822;2022-12-07T07:36:52;2.92;98.19
70166;SHT30;57541;47.408;18.822;2022-12-07T07:37:24;2.89;98.50
70166;SHT30;57541;47.408;18.822;2022-12-07T07:37:56;2.82;98.56
70166;SHT30;57541;47.408;18.822;2022-12-07T07:38:28;2.96;98.84
70166;SHT30;57541;47.408;18.822;2022-12-07T07:38:59;2.92;98.58
70166;SHT30;57541;47.408;18.822;2022-12-07T07:39:31;2.97;98.57
70166;SHT30;57541;47.408;18.822;2022-12-07T07:40:03;2.97;98.20
70166;SHT30;57541;47.408;18.822;2022-12-07T07:40:35;2.97;98.21
70166;SHT30;57541;47.408;18.822;2022-12-07T07:41:08;2.95;98.62
70166;SHT30;57541;47.408;18.822;2022-12-07T07:41:39;3.00;98.71
70166;SHT30;57541;47.408;18.822;2022-12-07T07:42:11;3.04;98.67
70166;SHT30;57541;47.408;18.822;2022-12-07T07:42:42;3.06;98.51
70166;SHT30;57541;47.408;18.822;2022-12-07T07:43:14;3.14;98.50
70166;SHT30;57541;47.408;18.822;2022-12-07T07:43:46;3.21;98.38
70166;SHT30;57541;47.408;18.822;2022-12-07T07:44:17;3.23;98.23
70166;SHT30;57541;47.408;18.822;2022-12-07T07:44:49;3.23;97.84
70166;SHT30;57541;47.408;18.822;2022-12-07T07:45:22;3.17;97.65
70166;SHT30;57541;47.408;18.822;2022-12-07T07:45:55;3.14;97.68
70166;SHT30;57541;47.408;18.822;2022-12-07T07:46:26;3.13;97.71
70166;SHT30;57541;47.408;18.822;2022-12-07T07:46:58;3.20;97.83
70166;SHT30;57541;47.408;18.822;2022-12-07T07:47:30;3.27;97.92
70166;SHT30;57541;47.408;18.822;2022-12-07T07:48:01;3.23;97.92
70166;SHT30;57541;47.408;18.822;2022-12-07T07:48:33;3.33;98.12
70166;SHT30;57541;47.408;18.822;2022-12-07T07:49:05;3.41;97.69
70166;SHT30;57541;47.408;18.822;2022-12-07T07:49:36;3.37;97.50
70166;SHT30;57541;47.408;18.822;2022-12-07T07:50:15;3.38;97.23
70166;SHT30;57541;47.408;18.822;2022-12-07T07:50:47;3.40;97.58
70166;SHT30;57541;47.408;18.822;2022-12-07T07:51:18;3.48;97.59
70166;SHT30;57541;47.408;18.822;2022-12-07T07:51:50;3.47;97.23
70166;SHT30;57541;47.408;18.822;2022-12-07T07:52:22;3.50;97.15
70166;SHT30;57541;47.408;18.822;2022-12-07T07:52:53;3.57;97.21
70166;SHT30;57541;47.408;18.822;2022-12-07T07:53:25;3.58;97.20
70166;SHT30;57541;47.408;18.822;2022-12-07T07:53:56;3.58;97.29
70166;SHT30;57541;47.408;18.822;2022-12-07T07:54:28;3.70;97.06
70166;SHT30;57541;47.408;18.822;2022-12-07T07:55:00;3.52;96.96
70166;SHT30;57541;47.408;18.822;2022-12-07T07:55:31;3.57;97.46
70166;SHT30;57541;47.408;18.822;2022-12-07T07:56:03;3.64;97.45
70166;SHT30;57541;47.408;18.822;2022-12-07T07:56:35;3.68;97.42
70166;SHT30;57541;47.408;18.822;2022-12-07T07:57:06;3.74;97.38
70166;SHT30;57541;47.408;18.822;2022-12-07T07:57:39;3.86;97.09
70166;SHT30;57541;47.408;18.822;2022-12-07T07:58:11;3.85;96.72
70166;SHT30;57541;47.408;18.822;2022-12-07T07:58:43;3.71;96.38
70166;SHT30;57541;47.408;18.822;2022-12-07T07:59:15;3.75;96.50
70166;SHT30;57541;47.408;18.822;2022-12-07T07:59:47;3.61;96.29
70166;SHT30;57541;47.408;18.822;2022-12-07T08:00:18;3.62;96.48
70166;SHT30;57541;47.408;18.822;2022-12-07T08:00:50;3.70;96.78
70166;SHT30;57541;47.408;18.822;2022-12-07T08:01:22;3.70;96.70
70166;SHT30;57541;47.408;18.822;2022-12-07T08:01:54;3.79;96.75
70166;SHT30;57541;47.408;18.822;2022-12-07T08:02:26;3.68;96.39
70166;SHT30;57541;47.408;18.822;2022-12-07T08:03:00;3.52;97.18
70166;SHT30;57541;47.408;18.822;2022-12-07T08:03:32;3.41;97.46
70166;SHT30;57541;47.408;18.822;2022-12-07T08:04:04;3.60;97.68
70166;SHT30;57541;47.408;18.822;2022-12-07T08:04:35;3.74;97.31
70166;SHT30;57541;47.408;18.822;2022-12-07T08:05:07;3.83;97.02
70166;SHT30;57541;47.408;18.822;2022-12-07T08:05:39;3.85;96.61
70166;SHT30;57541;47.408;18.822;2022-12-07T08:06:11;3.75;96.59
70166;SHT30;57541;47.408;18.822;2022-12-07T08:06:42;3.88;96.51
70166;SHT30;57541;47.408;18.822;2022-12-07T08:07:15;3.83;96.17
70166;SHT30;57541;47.408;18.822;2022-12-07T08:07:47;3.92;95.99
70166;SHT30;57541;47.408;18.822;2022-12-07T08:08:18;3.99;96.00
70166;SHT30;57541;47.408;18.822;2022-12-07T08:08:50;4.09;95.90
70166;SHT30;57541;47.408;18.822;2022-12-07T08:09:22;4.03;95.62
70166;SHT30;57541;47.408;18.822;2022-12-07T08:09:54;4.00;95.43
70166;SHT30;57541;47.408;18.822;2022-12-07T08:10:25;4.07;96.06
70166;SHT30;57541;47.408;18.822;2022-12-07T08:10:57;4.07;95.60
70166;SHT30;57541;47.408;18.822;2022-12-07T08:11:32;4.07;95.29
70166;SHT30;57541;47.408;18.822;2022-12-07T08:12:04;4.14;95.47
70166;SHT30;57541;47.408;18.822;2022-12-07T08:12:37;4.24;95.30
70166;SHT30;57541;47.408;18.822;2022-12-07T08:13:31;4.26;95.41
70166;SHT30;57541;47.408;18.822;2022-12-07T08:14:03;4.36;95.37
70166;SHT30;57541;47.408;18.822;2022-12-07T08:14:35;4.43;95.43
70166;SHT30;57541;47.408;18.822;2022-12-07T08:15:07;4.20;96.06
70166;SHT30;57541;47.408;18.822;2022-12-07T08:15:40;4.29;96.35
70166;SHT30;57541;47.408;18.822;2022-12-07T08:16:13;4.43;95.74
70166;SHT30;57541;47.408;18.822;2022-12-07T08:16:46;4.26;95.54
70166;SHT30;57541;47.408;18.822;2022-12-07T08:17:18;4.21;96.07
70166;SHT30;57541;47.408;18.822;2022-12-07T08:17:49;4.26;96.17
70166;SHT30;57541;47.408;18.822;2022-12-07T08:18:21;4.21;96.44
70166;SHT30;57541;47.408;18.822;2022-12-07T08:18:53;4.12;96.65
70166;SHT30;57541;47.408;18.822;2022-12-07T08:19:24;4.28;96.63
70166;SHT30;57541;47.408;18.822;2022-12-07T08:19:56;4.14;96.23
70166;SHT30;57541;47.408;18.822;2022-12-07T08:20:30;4.26;96.78
70166;SHT30;57541;47.408;18.822;2022-12-07T08:21:03;4.41;96.38
70166;SHT30;57541;47.408;18.822;2022-12-07T08:21:35;4.47;96.09
70166;SHT30;57541;47.408;18.822;2022-12-07T08:22:06;4.44;96.29
70166;SHT30;57541;47.408;18.822;2022-12-07T08:22:38;4.58;95.54
70166;SHT30;57541;47.408;18.822;2022-12-07T08:23:10;4.47;95.38
70166;SHT30;57541;47.408;18.822;2022-12-07T08:23:42;4.57;95.84
70166;SHT30;57541;47.408;18.822;2022-12-07T08:24:14;4.65;95.43
70166;SHT30;57541;47.408;18.822;2022-12-07T08:24:46;4.56;95.57
70166;SHT30;57541;47.408;18.822;2022-12-07T08:25:18;4.49;95.73
70166;SHT30;57541;47.408;18.822;2022-12-07T08:25:49;4.49;95.75
70166;SHT30;57541;47.408;18.822;2022-12-07T08:26:21;4.50;95.65
70166;SHT30;57541;47.408;18.822;2022-12-07T08:26:53;4.60;95.78
70166;SHT30;57541;47.408;18.822;2022-12-07T08:27:24;4.60;95.59
70166;SHT30;57541;47.408;18.822;2022-12-07T08:27:58;4.72;95.61
70166;SHT30;57541;47.408;18.822;2022-12-07T08:28:31;4.85;95.65
70166;SHT30;57541;47.408;18.822;2022-12-07T08:29:03;4.72;95.58
70166;SHT30;57541;47.408;18.822;2022-12-07T08:29:35;4.68;95.38
70166;SHT30;57541;47.408;18.822;2022-12-07T08:30:07;4.70;95.59
70166;SHT30;57541;47.408;18.822;2022-12-07T08:30:39;4.82;95.52
70166;SHT30;57541;47.408;18.822;2022-12-07T08:31:14;4.87;95.02
70166;SHT30;57541;47.408;18.822;2022-12-07T08:31:46;4.82;94.80
70166;SHT30;57541;47.408;18.822;2022-12-07T08:32:17;4.74;94.95
70166;SHT30;57541;47.408;18.822;2022-12-07T08:32:49;4.88;94.81
70166;SHT30;57541;47.408;18.822;2022-12-07T08:33:21;4.92;94.37
70166;SHT30;57541;47.408;18.822;2022-12-07T08:33:54;4.93;94.42
70166;SHT30;57541;47.408;18.822;2022-12-07T08:34:26;4.87;94.23
70166;SHT30;57541;47.408;18.822;2022-12-07T08:34:58;4.78;94.41
70166;SHT30;57541;47.408;18.822;2022-12-07T08:35:29;4.82;94.80
70166;SHT30;57541;47.408;18.822;2022-12-07T08:36:11;4.91;94.29
70166;SHT30;57541;47.408;18.822;2022-12-07T08:36:43;4.82;94.53
70166;SHT30;57541;47.408;18.822;2022-12-07T08:37:14;4.82;94.92
70166;SHT30;57541;47.408;18.822;2022-12-07T08:37:46;4.99;94.51
70166;SHT30;57541;47.408;18.822;2022-12-07T08:38:17;5.07;94.69
70166;SHT30;57541;47.408;18.822;2022-12-07T08:38:49;5.07;94.01
70166;SHT30;57541;47.408;18.822;2022-12-07T08:39:41;5.07;94.03
70166;SHT30;57541;47.408;18.822;2022-12-07T08:40:13;5.08;94.33
70166;SHT30;57541;47.408;18.822;2022-12-07T08:40:56;5.28;94.37
70166;SHT30;57541;47.408;18.822;2022-12-07T08:41:28;5.29;94.14
70166;SHT30;57541;47.408;18.822;2022-12-07T08:42:00;5.30;94.25
70166;SHT30;57541;47.408;18.822;2022-12-07T08:42:32;5.25;94.42
70166;SHT30;57541;47.408;18.822;2022-12-07T08:43:09;5.29;93.96
70166;SHT30;57541;47.408;18.822;2022-12-07T08:43:40;5.33;94.17
70166;SHT30;57541;47.408;18.822;2022-12-07T08:44:12;5.42;94.16
70166;SHT30;57541;47.408;18.822;2022-12-07T08:44:45;5.51;94.26
70166;SHT30;57541;47.408;18.822;2022-12-07T08:45:17;5.51;94.27
70166;SHT30;57541;47.408;18.822;2022-12-07T08:46:14;5.73;94.54
70166;SHT30;57541;47.408;18.822;2022-12-07T08:46:50;5.68;93.86
70166;SHT30;57541;47.408;18.822;2022-12-07T08:47:24;5.68;93.07
70166;SHT30;57541;47.408;18.822;2022-12-07T08:47:58;5.80;93.25
70166;SHT30;57541;47.408;18.822;2022-12-07T08:48:34;5.84;93.05
70166;SHT30;57541;47.408;18.822;2022-12-07T08:49:20;5.93;92.72
70166;SHT30;57541;47.408;18.822;2022-12-07T08:49:53;5.98;92.68
70166;SHT30;57541;47.408;18.822;2022-12-07T08:50:26;5.97;92.31
70166;SHT30;57541;47.408;18.822;2022-12-07T08:50:58;5.93;92.55
70166;SHT30;57541;47.408;18.822;2022-12-07T08:51:30;5.90;92.52
70166;SHT30;57541;47.408;18.822;2022-12-07T08:52:04;5.86;92.65
70166;SHT30;57541;47.408;18.822;2022-12-07T08:52:37;5.78;92.54
70166;SHT30;57541;47.408;18.822;2022-12-07T08:53:08;5.81;93.15
70166;SHT30;57541;47.408;18.822;2022-12-07T08:53:41;5.84;93.20
70166;SHT30;57541;47.408;18.822;2022-12-07T08:54:16;5.86;92.96
70166;SHT30;57541;47.408;18.822;2022-12-07T08:54:48;5.86;93.16
70166;SHT30;57541;47.408;18.822;2022-12-07T08:55:21;5.94;93.35
70166;SHT30;57541;47.408;18.822;2022-12-07T08:55:52;5.91;92.89
70166;SHT30;57541;47.408;18.822;2022-12-07T08:56:24;5.81;92.99
70166;SHT30;57541;47.408;18.822;2022-12-07T08:56:56;5.86;92.94
70166;SHT30;57541;47.408;18.822;2022-12-07T08:57:32;5.78;92.34
70166;SHT30;57541;47.408;18.822;2022-12-07T08:58:05;5.67;92.62
70166;SHT30;57541;47.408;18.822;2022-12-07T08:58:38;5.64;92.56
70166;SHT30;57541;47.408;18.822;2022-12-07T08:59:10;5.66;92.49
70166;SHT30;57541;47.408;18.822;2022-12-07T08:59:44;5.71;92.61
70166;SHT30;57541;47.408;18.822;2022-12-07T09:00:16;5.73;92.53
70166;SHT30;57541;47.408;18.822;2022-12-07T09:00:50;5.80;92.80
70166;SHT30;57541;47.408;18.822;2022-12-07T09:01:22;5.36;94.12
70166;SHT30;57541;47.408;18.822;2022-12-07T09:01:54;5.51;93.98
70166;SHT30;57541;47.408;18.822;2022-12-07T09:02:26;5.44;93.84
70166;SHT30;57541;47.408;18.822;2022-12-07T09:02:58;5.47;93.77
70166;SHT30;57541;47.408;18.822;2022-12-07T09:03:30;5.68;93.96
70166;SHT30;57541;47.408;18.822;2022-12-07T09:04:01;5.68;93.64
70166;SHT30;57541;47.408;18.822;2022-12-07T09:04:33;5.63;94.09
70166;SHT30;57541;47.408;18.822;2022-12-07T09:05:05;5.60;93.95
70166;SHT30;57541;47.408;18.822;2022-12-07T09:05:43;5.81;93.82
70166;SHT30;57541;47.408;18.822;2022-12-07T09:06:15;5.60;94.01
70166;SHT30;57541;47.408;18.822;2022-12-07T09:06:47;5.20;94.36
70166;SHT30;57541;47.408;18.822;2022-12-07T09:07:19;5.33;94.67
70166;SHT30;57541;47.408;18.822;2022-12-07T09:07:55;5.42;94.74
70166;SHT30;57541;47.408;18.822;2022-12-07T09:08:34;5.39;94.90
70166;SHT30;57541;47.408;18.822;2022-12-07T09:09:08;5.53;94.74
70166;SHT30;57541;47.408;18.822;2022-12-07T09:09:40;5.43;94.69
70166;SHT30;57541;47.408;18.822;2022-12-07T09:10:13;5.54;94.50
70166;SHT30;57541;47.408;18.822;2022-12-07T09:10:44;5.57;94.43
70166;SHT30;57541;47.408;18.822;2022-12-07T09:11:16;5.71;94.23
70166;SHT30;57541;47.408;18.822;2022-12-07T09:11:48;5.51;93.74
70166;SHT30;57541;47.408;18.822;2022-12-07T09:12:43;5.50;94.82
70166;SHT30;57541;47.408;18.822;2022-12-07T09:13:15;5.44;94.87
70166;SHT30;57541;47.408;18.822;2022-12-07T09:13:46;5.61;94.80
70166;SHT30;57541;47.408;18.822;2022-12-07T09:14:18;5.61;94.73
70166;SHT30;57541;47.408;18.822;2022-12-07T09:14:50;5.57;95.29
70166;SHT30;57541;47.408;18.822;2022-12-07T09:15:21;5.71;94.93
70166;SHT30;57541;47.408;18.822;2022-12-07T09:15:53;5.56;94.74
70166;SHT30;57541;47.408;18.822;2022-12-07T09:16:25;5.77;94.65
70166;SHT30;57541;47.408;18.822;2022-12-07T09:17:07;5.95;94.45
70166;SHT30;57541;47.408;18.822;2022-12-07T09:17:39;5.94;93.87
70166;SHT30;57541;47.408;18.822;2022-12-07T09:18:11;5.99;94.43
70166;SHT30;57541;47.408;18.822;2022-12-07T09:18:43;6.04;94.11
70166;SHT30;57541;47.408;18.822;2022-12-07T09:19:14;6.30;94.23
70166;SHT30;57541;47.408;18.822;2022-12-07T09:19:46;6.33;93.36
70166;SHT30;57541;47.408;18.822;2022-12-07T09:20:18;6.39;92.83
70166;SHT30;57541;47.408;18.822;2022-12-07T09:20:56;6.42;92.98
70166;SHT30;57541;47.408;18.822;2022-12-07T09:21:28;6.67;92.91
70166;SHT30;57541;47.408;18.822;2022-12-07T09:21:59;6.63;92.09
70166;SHT30;57541;47.408;18.822;2022-12-07T09:22:31;6.47;92.31
70166;SHT30;57541;47.408;18.822;2022-12-07T09:23:08;6.49;92.22
70166;SHT30;57541;47.408;18.822;2022-12-07T09:23:41;6.52;91.60
70166;SHT30;57541;47.408;18.822;2022-12-07T09:24:14;6.66;91.23
70166;SHT30;57541;47.408;18.822;2022-12-07T09:24:45;6.75;91.95
70166;SHT30;57541;47.408;18.822;2022-12-07T09:25:17;6.63;90.97
70166;SHT30;57541;47.408;18.822;2022-12-07T09:25:48;6.76;90.28
70166;SHT30;57541;47.408;18.822;2022-12-07T09:26:20;6.73;90.36
70166;SHT30;57541;47.408;18.822;2022-12-07T09:26:52;6.88;90.77
70166;SHT30;57541;47.408;18.822;2022-12-07T09:27:24;6.93;90.68
70166;SHT30;57541;47.408;18.822;2022-12-07T09:27:57;6.93;90.40
70166;SHT30;57541;47.408;18.822;2022-12-07T09:28:31;6.83;90.95
70166;SHT30;57541;47.408;18.822;2022-12-07T09:29:02;6.84;90.13
70166;SHT30;57541;47.408;18.822;2022-12-07T09:29:34;6.77;89.87
70166;SHT30;57541;47.408;18.822;2022-12-07T09:30:06;6.98;90.02
70166;SHT30;57541;47.408;18.822;2022-12-07T09:30:38;7.05;89.99
70166;SHT30;57541;47.408;18.822;2022-12-07T09:31:30;7.01;89.80
70166;SHT30;57541;47.408;18.822;2022-12-07T09:32:02;7.09;89.53
70166;SHT30;57541;47.408;18.822;2022-12-07T09:32:41;7.21;89.86
70166;SHT30;57541;47.408;18.822;2022-12-07T09:33:13;7.15;90.59
70166;SHT30;57541;47.408;18.822;2022-12-07T09:33:45;7.24;90.85
70166;SHT30;57541;47.408;18.822;2022-12-07T09:34:17;7.29;90.54
70166;SHT30;57541;47.408;18.822;2022-12-07T09:34:49;7.39;90.44
70166;SHT30;57541;47.408;18.822;2022-12-07T09:35:21;7.36;90.25
70166;SHT30;57541;47.408;18.822;2022-12-07T09:35:53;7.32;90.02
70166;SHT30;57541;47.408;18.822;2022-12-07T09:36:26;7.44;90.63
70166;SHT30;57541;47.408;18.822;2022-12-07T09:37:00;7.41;90.36
70166;SHT30;57541;47.408;18.822;2022-12-07T09:37:34;7.32;90.28
70166;SHT30;57541;47.408;18.822;2022-12-07T09:38:07;7.08;90.80
70166;SHT30;57541;47.408;18.822;2022-12-07T09:38:39;7.00;91.31
70166;SHT30;57541;47.408;18.822;2022-12-07T09:39:10;7.07;91.63
70166;SHT30;57541;47.408;18.822;2022-12-07T09:39:42;7.15;91.23
70166;SHT30;57541;47.408;18.822;2022-12-07T09:40:22;7.03;90.86
70166;SHT30;57541;47.408;18.822;2022-12-07T09:40:55;7.07;91.03
70166;SHT30;57541;47.408;18.822;2022-12-07T09:41:27;7.14;91.62
70166;SHT30;57541;47.408;18.822;2022-12-07T09:42:03;7.31;91.12
70166;SHT30;57541;47.408;18.822;2022-12-07T09:42:41;7.19;91.09
70166;SHT30;57541;47.408;18.822;2022-12-07T09:43:20;7.28;91.52
70166;SHT30;57541;47.408;18.822;2022-12-07T09:43:59;7.29;91.60
70166;SHT30;57541;47.408;18.822;2022-12-07T09:44:35;7.29;91.77
70166;SHT30;57541;47.408;18.822;2022-12-07T09:45:13;7.42;91.48
70166;SHT30;57541;47.408;18.822;2022-12-07T09:45:48;7.52;91.01
70166;SHT30;57541;47.408;18.822;2022-12-07T09:46:21;7.48;91.14
70166;SHT30;57541;47.408;18.822;2022-12-07T09:46:53;7.38;91.32
70166;SHT30;57541;47.408;18.822;2022-12-07T09:47:26;7.52;90.80